createdAt,value
2022-08-20T00:07:16.097Z,1.17
2022-08-20T00:17:17.386Z,3.63
2022-08-20T00:27:18.603Z,5.05
2022-08-20T00:37:19.840Z,3.22
2022-08-20T00:47:21.128Z,6.65
2022-08-20T00:57:24.697Z,4.38
2022-08-20T01:07:32.478Z,2.05
2022-08-20T01:17:34.844Z,4.65
2022-08-20T01:27:42.746Z,7.68
2022-08-20T01:37:44.253Z,11.02
2022-08-20T01:47:45.519Z,7.75
2022-08-20T01:57:51.011Z,6.93
2022-08-20T02:07:52.314Z,6.40
2022-08-20T02:17:53.596Z,9.20
2022-08-20T02:27:55.197Z,8.85
2022-08-20T02:37:57.013Z,5.70
2022-08-20T02:47:59.257Z,5.40
2022-08-20T02:58:00.847Z,5.03
2022-08-20T03:08:02.225Z,5.15
2022-08-20T03:18:03.481Z,10.55
2022-08-20T03:28:04.746Z,11.95
2022-08-20T03:38:06.627Z,8.95
2022-08-20T03:48:08.213Z,9.10
2022-08-20T03:58:09.634Z,7.55
2022-08-20T04:08:12.171Z,11.18
2022-08-20T04:18:13.441Z,10.77
2022-08-20T04:28:15.783Z,8.93
2022-08-20T04:38:17.417Z,9.27
2022-08-20T04:48:20.161Z,9.35
2022-08-20T04:58:22.464Z,6.72
2022-08-20T05:08:25.044Z,5.85
2022-08-20T05:18:26.344Z,16.23
2022-08-20T05:28:32.398Z,9.57
2022-08-20T05:38:34.860Z,4.75
2022-08-20T05:48:36.484Z,1.73
2022-08-20T05:58:37.745Z,8.82
2022-08-20T06:08:39.127Z,11.60
2022-08-20T06:18:40.352Z,4.90
2022-08-20T06:28:43.936Z,11.73
2022-08-20T06:38:46.217Z,3.65
2022-08-20T06:48:47.606Z,16.17
2022-08-20T06:58:49.464Z,20.67
2022-08-20T07:08:50.684Z,19.30
2022-08-20T07:18:51.887Z,18.13
2022-08-20T07:28:53.266Z,17.02
2022-08-20T07:38:54.571Z,16.63
2022-08-20T07:48:58.189Z,19.00
2022-08-20T07:58:59.855Z,16.25
2022-08-20T08:09:05.137Z,16.25
2022-08-20T08:19:06.885Z,15.98
2022-08-20T08:29:08.114Z,23.38
2022-08-20T08:39:09.519Z,24.23
2022-08-20T08:49:11.989Z,19.55
2022-08-20T08:59:13.406Z,25.15
2022-08-20T09:09:18.276Z,19.52
2022-08-20T09:19:19.545Z,21.85
2022-08-20T09:29:20.839Z,5.85
2022-08-20T09:39:22.310Z,15.90
2022-08-20T09:49:23.598Z,21.85
2022-08-20T09:59:24.803Z,15.73
2022-08-20T10:09:26.042Z,16.63
2022-08-20T10:19:27.429Z,18.15
2022-08-20T10:29:28.836Z,23.10
2022-08-20T10:39:31.515Z,17.17
2022-08-20T10:49:35.653Z,20.83
2022-08-20T10:59:40.474Z,19.55
2022-08-20T11:09:41.921Z,17.23
2022-08-20T11:19:43.525Z,20.92
2022-08-20T11:29:44.826Z,5.13
2022-08-20T11:39:46.214Z,4.95
2022-08-20T11:49:47.447Z,12.52
2022-08-20T11:59:49.868Z,13.02
2022-08-20T12:09:51.473Z,13.05
2022-08-20T12:19:53.155Z,13.93
2022-08-20T12:29:55.060Z,9.75
2022-08-20T12:39:57.279Z,12.13
2022-08-20T12:50:00.900Z,7.35
2022-08-20T13:00:08.507Z,10.30
2022-08-20T13:10:10.534Z,7.80
2022-08-20T13:20:13.221Z,6.68
2022-08-20T13:30:19.055Z,6.80
2022-08-20T13:40:20.341Z,6.28
2022-08-20T13:50:22.163Z,11.27
2022-08-20T14:00:31.193Z,7.53
2022-08-20T14:10:33.056Z,7.78
2022-08-20T14:20:34.453Z,6.53
2022-08-20T14:30:35.671Z,13.05
2022-08-20T14:40:36.962Z,12.85
2022-08-20T14:50:38.212Z,5.55
2022-08-20T15:00:39.770Z,7.63
2022-08-20T15:10:41.766Z,7.43
2022-08-20T15:20:42.983Z,10.88
2022-08-20T15:30:44.253Z,12.13
2022-08-20T15:40:46.066Z,6.97
2022-08-20T15:50:47.300Z,8.75
2022-08-20T16:01:15.355Z,4.53
2022-08-20T16:11:33.549Z,5.90
2022-08-20T16:21:37.311Z,12.02
2022-08-20T16:31:43.448Z,4.50
2022-08-20T16:51:51.735Z,3.05
2022-08-20T17:02:16.330Z,3.03
2022-08-20T17:12:22.182Z,6.57
2022-08-20T17:22:23.556Z,11.68
2022-08-20T17:32:26.705Z,3.70
2022-08-20T17:42:27.990Z,10.10
2022-08-20T17:52:38.371Z,12.13
2022-08-20T18:02:39.614Z,5.00
2022-08-20T18:12:41.679Z,8.20
2022-08-20T18:22:44.518Z,7.15
2022-08-20T18:32:45.883Z,6.22
2022-08-20T18:42:49.537Z,8.38
2022-08-20T18:52:51.862Z,8.27
2022-08-20T19:03:09.162Z,8.63
2022-08-20T19:13:16.245Z,14.10
2022-08-20T19:23:21.109Z,13.57
2022-08-20T19:33:44.087Z,12.38
2022-08-20T19:43:45.942Z,7.53
2022-08-20T19:53:47.628Z,8.15
2022-08-20T20:03:59.235Z,6.47
2022-08-20T20:14:07.910Z,10.55
2022-08-20T20:24:09.373Z,9.10
2022-08-20T20:34:11.591Z,9.40
2022-08-20T20:44:17.438Z,7.63
2022-08-20T20:54:25.003Z,6.50
2022-08-20T21:04:26.380Z,6.00
2022-08-20T21:14:27.775Z,6.43
2022-08-20T21:24:29.118Z,9.45
2022-08-20T21:34:30.356Z,16.05
2022-08-20T21:44:32.150Z,8.52
2022-08-20T21:54:33.366Z,7.47
2022-08-20T22:04:35.674Z,10.50
2022-08-20T22:14:37.323Z,14.60
2022-08-20T22:24:39.520Z,10.23
2022-08-20T22:34:40.918Z,9.48
2022-08-20T22:44:42.159Z,8.07
2022-08-20T22:54:45.332Z,8.15
2022-08-20T23:04:46.664Z,13.20
2022-08-20T23:14:48.154Z,10.25
2022-08-20T23:24:49.380Z,13.52
2022-08-20T23:34:50.632Z,9.75
2022-08-20T23:44:51.993Z,12.35
2022-08-20T23:54:53.295Z,9.82
